Chicago, Illinois
Current Conditions -  °F | °C
As of 11:53 AM on Thursday 30 Oct 2014 (Local Time) from KMDW Reporting Station
Broken Clouds Broken Clouds  
Wind Chill: 51°   Ceiling: 12000
Heat Index: 51°   Visibility: 10mi
Dew Point: 35°   Wind: 9mph
Humidity: 54%   Direction: 200°SSW
Pressure: 30.12"   Gusts: NA
Location:  41.88°N, 87.63°W
Report Text: KMDW 301653Z 20008KT 170V250 10SM BKN120 BKN250 11/02 A3012 RMK AO2 SLP203 T01060017
Loading
Personal Weather Stations






























Interactive Weather Map
Tropical Storm Tracking
New forecast layout! Learn more

10-Day Weather Forecast

Advertisements
Track Severe Weather on mobile